Time;durP1;ratioP1;P1;durP2;ratioP2;P2;SDS_P1;SDS_P2;PMS_P1;PMS_P2;Temp;Humidity;BMP_temperature;BMP_pressure;BME280_temperature;BME280_humidity;BME280_pressure;Samples;Min_cycle;Max_cycle;Signal;HPM_P1;HPM_P2
2022/05/03 00:02:07;;;;;;;5.63;5.03;;;;;;;17.14;44.42;94895.25;5071143;28;20495;-56
2022/05/03 00:04:55;;;;;;;5.13;4.53;;;;;;;16.70;44.92;94889.75;5071299;28;20450;-58
2022/05/03 00:07:43;;;;;;;5.67;4.57;;;;;;;16.91;45.23;94885.66;5071247;28;20538;-56
2022/05/03 00:10:17;;;;;;;6.07;4.90;;;;;;;16.78;45.65;94886.44;5071094;28;20824;-59
2022/05/03 00:12:55;;;;;;;5.30;4.60;;;;;;;16.97;45.10;94889.75;5053781;28;20468;-59
2022/05/03 00:15:24;;;;;;;6.37;4.97;;;;;;;16.86;45.59;94893.69;5070195;28;20477;-57
2022/05/03 00:17:52;;;;;;;5.40;4.13;;;;;;;17.25;44.54;94890.53;5071253;28;20492;-58
2022/05/03 00:20:20;;;;;;;8.27;4.90;;;;;;;17.20;44.89;94886.13;5070453;28;21079;-63
2022/05/03 00:22:47;;;;;;;6.80;5.03;;;;;;;17.30;45.46;94887.00;5071177;28;20964;-60
2022/05/03 00:25:15;;;;;;;8.07;4.63;;;;;;;17.10;44.98;94878.38;5070205;28;20969;-64
2022/05/03 00:27:43;;;;;;;7.83;4.90;;;;;;;17.05;45.36;94877.72;5070947;28;20531;-60
2022/05/03 00:30:10;;;;;;;6.23;5.03;;;;;;;17.10;45.25;94880.25;5070206;28;20533;-63
2022/05/03 00:32:40;;;;;;;6.03;4.53;;;;;;;17.21;45.55;94874.44;5070810;28;20446;-64
2022/05/03 00:35:09;;;;;;;5.80;4.60;;;;;;;17.13;45.29;94882.31;5070262;28;20438;-57
2022/05/03 00:37:36;;;;;;;6.60;5.00;;;;;;;16.98;45.39;94888.72;5070803;28;20499;-65
2022/05/03 00:40:04;;;;;;;5.13;4.63;;;;;;;16.90;45.70;94886.72;5070221;28;20426;-68
2022/05/03 00:43:19;;;;;;;6.13;5.50;;;;;;;16.91;45.94;94880.38;5071085;28;20463;-62
2022/05/03 00:45:54;;;;;;;9.83;6.13;;;;;;;16.90;46.28;94889.38;5054600;28;20447;-57
2022/05/03 00:48:54;;;;;;;7.27;5.50;;;;;;;16.84;45.99;94887.13;5070584;28;20964;-65
2022/05/03 00:51:32;;;;;;;5.90;4.93;;;;;;;16.52;45.75;94869.47;5069529;28;20426;-60
2022/05/03 00:54:14;;;;;;;4.83;4.37;;;;;;;16.78;46.04;94881.16;5070263;28;21003;-57
2022/05/03 00:56:47;;;;;;;7.60;4.50;;;;;;;16.02;47.45;94888.84;5070028;28;21038;-61
2022/05/03 00:59:29;;;;;;;8.20;4.90;;;;;;;16.65;46.11;94886.44;5070358;28;21387;-62
2022/05/03 01:02:04;;;;;;;5.27;4.50;;;;;;;16.19;46.92;94887.22;5069685;28;20437;-58
2022/05/03 01:05:02;;;;;;;5.30;4.80;;;;;;;16.67;45.87;94874.50;5070734;28;20445;-58
2022/05/03 01:07:34;;;;;;;5.40;4.77;;;;;;;16.44;46.65;94872.75;5069685;28;20478;-63
2022/05/03 01:10:22;;;;;;;5.40;4.90;;;;;;;16.59;45.87;94875.16;5069781;28;20438;-57
2022/05/03 01:13:04;;;;;;;5.47;4.97;;;;;;;16.75;45.46;94871.13;5070374;28;20454;-59
2022/05/03 01:15:39;;;;;;;5.60;4.83;;;;;;;16.73;45.59;94868.00;5069459;28;20422;-59
2022/05/03 01:18:32;;;;;;;6.30;5.27;;;;;;;16.70;45.31;94867.81;5069860;28;20465;-60
2022/05/03 01:21:04;;;;;;;5.50;4.97;;;;;;;16.59;45.93;94872.50;5069521;28;21283;-63
2022/05/03 01:23:42;;;;;;;7.03;5.00;;;;;;;16.77;45.75;94874.28;5069985;28;20449;-64
2022/05/03 01:26:09;;;;;;;4.87;4.37;;;;;;;16.56;45.75;94865.16;5068935;28;20438;-62
2022/05/03 01:29:17;;;;;;;5.83;4.30;;;;;;;16.08;46.39;94871.78;5070292;28;20418;-60
2022/05/03 01:31:46;;;;;;;6.37;4.63;;;;;;;16.12;46.28;94862.22;5069414;28;20442;-57
2022/05/03 01:34:19;;;;;;;5.83;4.47;;;;;;;15.96;47.09;94864.34;5052175;28;20426;-65
2022/05/03 01:37:00;;;;;;;5.93;4.10;;;;;;;15.97;46.38;94863.25;5069057;28;20453;-60
2022/05/03 01:40:01;;;;;;;5.20;4.40;;;;;;;15.87;46.81;94830.94;5070128;28;20803;-58
2022/05/03 01:42:50;;;;;;;7.93;4.47;;;;;;;16.54;45.44;94851.44;5069623;28;20786;-62
2022/05/03 01:45:30;;;;;;;4.93;4.43;;;;;;;16.24;45.62;94850.09;5068824;28;20426;-61
2022/05/03 01:50:18;;;;;;;6.83;5.27;;;;;;;16.57;45.49;94842.16;5069247;28;20482;-61
2022/05/03 01:51:26;;;;;;;6.30;4.27;;;;;;;16.54;45.20;94853.31;5068915;28;20438;-64
2022/05/03 01:54:28;;;;;;;5.57;4.97;;;;;;;16.80;44.85;94852.53;5069706;28;20450;-59
2022/05/03 01:57:40;;;;;;;6.90;5.47;;;;;;;16.70;45.59;94850.06;5055627;28;20532;-60
2022/05/03 02:00:10;;;;;;;7.07;5.47;;;;;;;16.76;44.60;94854.19;5026825;28;21040;-63
2022/05/03 02:02:56;;;;;;;5.37;4.87;;;;;;;16.89;45.21;94850.78;5049638;28;20462;-59
2022/05/03 02:05:46;;;;;;;6.67;5.33;;;;;;;17.12;44.68;94852.41;5049123;28;20447;-61
2022/05/03 02:08:23;;;;;;;5.87;5.03;;;;;;;16.79;44.67;94850.97;5049571;28;20543;-56
2022/05/03 02:11:02;;;;;;;6.57;5.20;;;;;;;16.92;43.85;94847.53;5048770;28;21072;-65
2022/05/03 02:17:05;;;;;;;6.17;5.20;;;;;;;16.98;44.15;94842.91;5048856;28;20442;-55
2022/05/03 02:19:53;;;;;;;5.20;4.67;;;;;;;16.69;44.79;94845.88;5049049;28;20458;-64
2022/05/03 02:22:34;;;;;;;5.97;4.80;;;;;;;16.98;44.00;94851.66;5048716;28;20802;-66
2022/05/03 02:25:17;;;;;;;5.27;4.50;;;;;;;16.68;44.42;94851.44;5048885;28;20447;-63
2022/05/03 02:27:57;;;;;;;8.00;5.30;;;;;;;16.61;45.06;94843.91;5049013;28;20471;-55
2022/05/03 02:30:27;;;;;;;6.30;5.70;;;;;;;16.79;45.35;94845.66;5048778;28;20431;-56
2022/05/03 02:32:56;;;;;;;7.60;6.27;;;;;;;16.68;45.79;94843.50;5049064;28;20473;-58
2022/05/03 02:35:30;;;;;;;6.67;5.97;;;;;;;16.55;46.08;94837.13;5040768;28;20455;-56
2022/05/03 02:38:01;;;;;;;7.30;5.60;;;;;;;16.65;45.99;94836.94;5049249;28;21043;-60
2022/05/03 02:40:30;;;;;;;8.57;6.03;;;;;;;16.64;45.70;94843.31;5048805;28;20530;-63
2022/05/03 02:42:58;;;;;;;7.10;6.00;;;;;;;16.59;46.33;94832.84;5049328;28;20427;-58
2022/05/03 02:45:25;;;;;;;6.63;5.93;;;;;;;16.68;45.91;94839.00;5048304;28;20442;-57
2022/05/03 02:48:16;;;;;;;6.30;5.70;;;;;;;16.79;46.17;94839.56;5048471;28;20477;-57
2022/05/03 02:51:03;;;;;;;6.90;6.20;;;;;;;16.81;45.71;94832.94;5048274;28;20832;-58
2022/05/03 02:53:55;;;;;;;7.03;6.03;;;;;;;16.30;46.87;94831.50;5049043;28;20969;-61
2022/05/03 02:56:27;;;;;;;7.47;5.97;;;;;;;16.44;47.39;94833.06;5048650;28;20441;-60
2022/05/03 02:59:03;;;;;;;6.43;5.83;;;;;;;16.41;46.46;94831.03;5052441;28;20462;-61
2022/05/03 03:01:48;;;;;;;6.13;5.53;;;;;;;16.61;46.40;94833.31;5068884;28;20438;-62
2022/05/03 03:04:56;;;;;;;6.97;6.27;;;;;;;16.62;45.63;94828.81;5068860;28;20434;-59
2022/05/03 03:07:25;;;;;;;6.60;5.73;;;;;;;16.53;46.22;94826.06;5068866;28;20478;-61
2022/05/03 03:10:02;;;;;;;7.03;5.80;;;;;;;16.57;46.61;94832.34;5068374;28;20437;-57
2022/05/03 03:12:41;;;;;;;6.70;6.10;;;;;;;16.67;46.93;94834.00;5068671;28;20819;-59
2022/05/03 03:15:09;;;;;;;9.00;6.37;;;;;;;16.85;46.53;94833.91;5068375;28;20521;-60
2022/05/03 03:17:41;;;;;;;8.03;6.47;;;;;;;16.61;46.22;94835.97;5068540;28;20438;-63
2022/05/03 03:20:09;;;;;;;10.90;7.87;;;;;;;16.57;46.77;94834.22;5067301;28;20461;-61
2022/05/03 03:22:41;;;;;;;9.73;7.33;;;;;;;16.51;46.47;94838.03;5068563;28;20496;-57
2022/05/03 03:25:12;;;;;;;10.03;7.30;;;;;;;16.63;45.87;94833.03;5071637;28;20499;-58
2022/05/03 03:27:42;;;;;;;7.50;6.70;;;;;;;16.56;46.12;94835.28;5071963;28;20488;-63
2022/05/03 03:30:11;;;;;;;8.27;6.67;;;;;;;16.64;45.78;94843.31;5071994;28;20430;-59
2022/05/03 03:32:40;;;;;;;8.63;6.97;;;;;;;16.55;45.94;94829.19;5071995;28;20434;-59
2022/05/03 03:35:08;;;;;;;8.47;6.80;;;;;;;16.78;46.06;94828.22;5071816;28;20959;-57
2022/05/03 03:37:35;;;;;;;8.03;7.23;;;;;;;16.75;45.61;94839.38;5071972;28;20875;-56
2022/05/03 03:40:04;;;;;;;7.77;7.03;;;;;;;16.75;45.57;94833.34;5071332;28;20450;-56
2022/05/03 03:42:31;;;;;;;7.00;6.27;;;;;;;16.53;46.36;94831.34;5071629;28;21287;-59
2022/05/03 03:45:07;;;;;;;7.77;6.13;;;;;;;16.53;46.25;94836.63;5071458;28;20544;-59
2022/05/03 03:47:39;;;;;;;7.60;6.40;;;;;;;16.69;45.40;94843.22;5071424;28;20466;-53
2022/05/03 03:50:07;;;;;;;7.57;6.77;;;;;;;16.77;45.60;94839.88;5071379;28;20454;-61
2022/05/03 03:52:37;;;;;;;8.03;6.23;;;;;;;16.68;45.64;94846.94;5071606;28;20435;-64
2022/05/03 03:55:05;;;;;;;7.40;6.63;;;;;;;16.74;45.75;94847.63;5071088;28;20516;-58
2022/05/03 03:57:36;;;;;;;7.60;6.77;;;;;;;16.59;45.83;94846.06;5071449;28;20434;-64
2022/05/03 04:00:08;;;;;;;8.93;7.10;;;;;;;16.69;45.76;94848.53;5069491;28;20869;-61
2022/05/03 04:02:41;;;;;;;9.20;7.20;;;;;;;16.44;46.49;94851.59;5069591;28;20467;-62
2022/05/03 04:05:24;;;;;;;7.77;7.00;;;;;;;16.51;47.11;94853.91;5070139;28;20453;-64
2022/05/03 04:07:51;;;;;;;10.10;8.00;;;;;;;16.35;47.17;94856.00;5070005;28;20563;-60
2022/05/03 04:10:20;;;;;;;8.20;7.40;;;;;;;16.43;46.93;94852.69;5069429;28;20522;-61
2022/05/03 04:12:47;;;;;;;9.70;7.50;;;;;;;16.32;47.29;94853.94;5070817;28;20552;-59
2022/05/03 04:15:13;;;;;;;9.27;8.27;;;;;;;16.20;48.59;94856.28;5071153;28;20449;-65
2022/05/03 04:17:45;;;;;;;8.53;7.73;;;;;;;16.50;47.79;94853.09;5070971;28;21119;-56
2022/05/03 04:20:15;;;;;;;8.57;7.50;;;;;;;16.33;47.64;94852.84;5070439;28;20438;-62
2022/05/03 04:22:42;;;;;;;7.97;7.17;;;;;;;16.44;46.49;94856.13;5071511;28;20512;-55
2022/05/03 04:25:10;;;;;;;7.00;6.30;;;;;;;16.57;46.26;94858.78;5071114;28;20450;-62
2022/05/03 04:27:37;;;;;;;8.07;6.10;;;;;;;16.66;46.38;94858.91;5071299;28;20976;-55
2022/05/03 04:30:05;;;;;;;6.50;5.80;;;;;;;16.44;46.01;94854.22;5052401;28;20461;-57
2022/05/03 04:32:34;;;;;;;6.90;5.43;;;;;;;15.89;46.27;94860.50;5071073;28;20533;-55
2022/05/03 04:35:01;;;;;;;9.90;6.50;;;;;;;16.29;45.79;94867.75;5070179;28;21216;-59
2022/05/03 04:37:28;;;;;;;9.10;6.60;;;;;;;16.38;46.77;94860.72;5070612;28;20435;-51
2022/05/03 04:39:55;;;;;;;7.27;6.40;;;;;;;16.59;46.27;94861.94;5069971;28;20442;-65
2022/05/03 04:42:23;;;;;;;9.47;7.23;;;;;;;16.58;46.55;94864.88;5054809;28;20442;-57
2022/05/03 04:44:50;;;;;;;11.10;6.80;;;;;;;16.70;46.38;94867.81;5069931;28;20468;-61
2022/05/03 04:47:17;;;;;;;8.53;6.83;;;;;;;16.55;45.67;94860.94;5070324;28;20469;-60
2022/05/03 04:49:45;;;;;;;13.87;9.47;;;;;;;16.53;46.51;94865.72;5069184;28;20446;-60
2022/05/03 04:52:13;;;;;;;41.07;31.50;;;;;;;16.57;46.10;94868.59;5070903;28;20438;-68
2022/05/03 04:54:40;;;;;;;8.03;6.47;;;;;;;16.26;44.83;94868.31;5070154;28;20450;-57
2022/05/03 04:57:09;;;;;;;5.83;5.00;;;;;;;16.15;45.17;94867.72;5070171;28;20472;-62
2022/05/03 04:59:37;;;;;;;6.80;4.90;;;;;;;15.75;46.71;94886.84;5069704;28;20497;-64
2022/05/03 05:02:04;;;;;;;8.23;5.17;;;;;;;15.86;46.29;94884.84;5069818;28;20507;-62
2022/05/03 05:04:31;;;;;;;7.40;5.50;;;;;;;16.25;45.73;94882.63;5070222;28;20503;-63
2022/05/03 05:06:58;;;;;;;6.47;5.30;;;;;;;16.51;45.98;94881.13;5069943;28;20442;-63
2022/05/03 05:09:26;;;;;;;8.13;5.00;;;;;;;16.21;46.08;94877.13;5070267;28;20433;-61
2022/05/03 05:11:53;;;;;;;7.90;5.10;;;;;;;15.91;46.35;94874.97;5069609;28;20442;-59
2022/05/03 05:14:20;;;;;;;7.00;6.10;;;;;;;16.21;46.23;94868.41;5069850;28;21028;-55
2022/05/03 05:16:49;;;;;;;7.47;6.00;;;;;;;16.01;46.35;94868.75;5069624;28;21021;-62
2022/05/03 05:19:16;;;;;;;31.03;25.47;;;;;;;15.97;45.71;94880.97;5070313;28;20453;-64
2022/05/03 05:21:43;;;;;;;30.73;19.00;;;;;;;16.26;44.71;94875.47;5069475;28;20567;-58
2022/05/03 05:24:11;;;;;;;5.27;4.73;;;;;;;15.89;45.56;94874.47;5069737;28;20976;-58
2022/05/03 05:26:39;;;;;;;5.33;4.40;;;;;;;15.69;45.64;94885.34;5069186;28;20422;-59
2022/05/03 05:29:07;;;;;;;5.10;3.87;;;;;;;15.69;44.58;94880.06;5069542;28;20481;-60
2022/05/03 05:31:34;;;;;;;4.47;3.50;;;;;;;15.25;45.58;94890.94;5051694;28;20924;-61
2022/05/03 05:34:02;;;;;;;11.60;5.93;;;;;;;15.97;45.14;94875.69;5069806;28;20481;-70
2022/05/03 05:36:29;;;;;;;6.60;4.70;;;;;;;15.92;45.16;94881.84;5069537;28;21263;-59
2022/05/03 05:38:57;;;;;;;5.30;4.00;;;;;;;15.96;44.55;94876.75;5069247;28;20450;-61
2022/05/03 05:41:24;;;;;;;5.27;3.80;;;;;;;15.95;44.99;94877.81;5067804;28;20480;-63
2022/05/03 05:43:51;;;;;;;4.80;4.20;;;;;;;16.39;43.48;94878.13;5067108;28;20422;-55
2022/05/03 05:46:18;;;;;;;4.50;4.10;;;;;;;16.39;44.09;94888.72;5066170;28;20434;-64
2022/05/03 05:48:45;;;;;;;6.00;4.10;;;;;;;16.46;44.30;94877.78;5067165;28;20531;-67
2022/05/03 05:51:14;;;;;;;5.37;4.07;;;;;;;16.56;43.27;94888.97;5067262;28;20461;-58
2022/05/03 05:53:43;;;;;;;4.50;3.50;;;;;;;16.68;43.07;94894.56;5068812;28;20441;-59
2022/05/03 05:56:11;;;;;;;7.47;3.90;;;;;;;16.75;42.86;94897.59;5068810;28;20503;-62
2022/05/03 05:58:45;;;;;;;4.73;3.67;;;;;;;16.87;43.15;94911.16;5050988;28;20445;-67
2022/05/03 06:01:39;;;;;;;7.90;4.30;;;;;;;17.07;43.39;94902.81;5051003;28;20884;-60
2022/05/03 06:04:07;;;;;;;5.37;4.20;;;;;;;16.69;43.10;94909.38;5069093;28;20450;-65
2022/05/03 06:06:36;;;;;;;6.30;4.00;;;;;;;16.64;42.08;94906.03;5068975;28;20972;-55
2022/05/03 06:09:03;;;;;;;6.20;4.00;;;;;;;16.75;42.03;94894.94;5069229;28;20500;-67
2022/05/03 06:11:30;;;;;;;6.93;4.60;;;;;;;16.68;43.61;94907.78;5051191;28;20434;-65
2022/05/03 06:13:57;;;;;;;7.77;3.97;;;;;;;16.77;43.28;94915.84;5069661;28;20457;-63
2022/05/03 06:16:24;;;;;;;7.77;4.30;;;;;;;17.20;42.28;94915.28;5068706;28;20525;-60
2022/05/03 06:18:51;;;;;;;4.70;3.70;;;;;;;16.95;43.13;94907.81;5069500;28;20558;-64
2022/05/03 06:21:19;;;;;;;8.73;4.20;;;;;;;16.72;42.34;94908.78;5069018;28;20861;-56
2022/05/03 06:23:46;;;;;;;6.83;4.60;;;;;;;16.33;43.56;94911.03;5068974;28;20826;-63
2022/05/03 06:26:13;;;;;;;10.17;4.80;;;;;;;16.87;43.19;94921.75;5068688;28;20442;-62
2022/05/03 06:28:45;;;;;;;4.73;3.90;;;;;;;16.97;42.42;94921.53;5069115;28;20477;-62
2022/05/03 06:31:12;;;;;;;5.03;3.87;;;;;;;16.92;42.68;94913.69;5050952;28;20446;-59
2022/05/03 06:33:39;;;;;;;5.27;3.70;;;;;;;17.07;42.81;94915.25;5068607;28;20487;-62
2022/05/03 06:36:11;;;;;;;5.13;3.53;;;;;;;16.64;42.66;94917.38;5068684;28;20445;-51
2022/05/03 06:38:38;;;;;;;9.80;3.33;;;;;;;17.33;42.38;94924.28;5069067;28;20440;-62
2022/05/03 06:41:05;;;;;;;5.57;3.60;;;;;;;17.41;41.97;94910.31;5068457;28;20491;-65
2022/05/03 06:43:32;;;;;;;4.23;3.23;;;;;;;16.55;41.76;94924.44;5068871;28;20454;-63
2022/05/03 06:45:59;;;;;;;3.87;3.47;;;;;;;16.69;42.12;94935.03;5068851;28;20530;-62
2022/05/03 06:48:26;;;;;;;4.90;3.53;;;;;;;16.87;41.64;94931.53;5068807;28;20465;-58
2022/05/03 06:50:53;;;;;;;6.50;3.80;;;;;;;17.29;41.03;94933.09;5068701;28;20438;-64
2022/05/03 06:53:20;;;;;;;7.27;4.17;;;;;;;17.75;41.14;94931.88;5069165;28;20970;-58
2022/05/03 06:55:47;;;;;;;6.27;3.73;;;;;;;17.66;40.74;94922.28;5068588;28;20537;-57
2022/05/03 06:58:14;;;;;;;4.13;3.27;;;;;;;17.39;41.25;94938.19;5069237;28;20521;-63
2022/05/03 07:00:40;;;;;;;5.30;3.40;;;;;;;17.74;41.35;94935.59;5071674;28;20501;-66
2022/05/03 07:03:07;;;;;;;5.90;3.43;;;;;;;17.37;41.78;94929.75;5072320;28;20441;-53
2022/05/03 07:05:34;;;;;;;6.17;3.50;;;;;;;17.11;41.13;94932.13;5071900;28;20446;-62
2022/05/03 07:08:01;;;;;;;4.40;3.60;;;;;;;17.51;41.55;94925.25;5072563;28;20473;-64
2022/05/03 07:10:28;;;;;;;6.10;4.37;;;;;;;17.62;42.50;94943.28;5071845;28;20444;-54
2022/05/03 07:12:55;;;;;;;5.17;3.40;;;;;;;17.60;41.19;94936.72;5072227;28;20461;-62
2022/05/03 07:15:24;;;;;;;4.67;3.70;;;;;;;17.27;40.98;94940.53;5072044;28;20468;-56
2022/05/03 07:23:23;;;;;;;6.67;3.73;;;;;;;17.92;40.97;94936.50;5072586;28;20674;-57
2022/05/03 07:25:50;;;;;;;5.30;3.80;;;;;;;18.30;41.21;94932.47;5071222;28;20491;-59
2022/05/03 07:28:17;;;;;;;5.07;4.07;;;;;;;18.61;40.85;94929.88;5071980;28;20473;-58
2022/05/03 07:30:44;;;;;;;7.77;3.77;;;;;;;18.04;40.25;94944.75;5071185;28;20442;-61
2022/05/03 07:33:11;;;;;;;4.90;3.47;;;;;;;17.37;40.48;94943.00;5072188;28;20468;-58
2022/05/03 07:35:38;;;;;;;4.20;3.30;;;;;;;17.54;40.58;94956.44;5071902;28;20445;-65
2022/05/03 07:38:05;;;;;;;8.27;3.73;;;;;;;17.63;41.27;94949.34;5072079;28;20472;-57
2022/05/03 07:40:32;;;;;;;7.73;3.50;;;;;;;17.83;40.52;94946.25;5071476;28;20486;-55
2022/05/03 07:43:00;;;;;;;10.37;3.83;;;;;;;18.26;40.19;94952.72;5071762;28;20537;-57
2022/05/03 07:45:27;;;;;;;9.37;3.70;;;;;;;18.49;40.58;94951.66;5053466;28;20438;-55
2022/05/03 07:48:00;;;;;;;11.00;3.40;;;;;;;18.52;40.11;94956.34;5071506;28;20477;-57
2022/05/03 07:50:27;;;;;;;7.87;4.07;;;;;;;18.41;39.61;94968.28;5053921;28;20805;-56
2022/05/03 07:52:54;;;;;;;5.13;3.30;;;;;;;18.41;39.32;94955.00;5071803;28;20435;-63
2022/05/03 07:55:20;;;;;;;5.07;3.30;;;;;;;18.44;39.34;94953.63;5071327;28;20502;-61
2022/05/03 07:57:47;;;;;;;6.03;2.90;;;;;;;18.55;40.33;94958.41;5071574;28;20847;-59
2022/05/03 08:00:15;;;;;;;12.00;3.90;;;;;;;18.58;40.33;94955.13;5070933;28;20478;-62
2022/05/03 08:02:42;;;;;;;6.47;3.47;;;;;;;18.23;39.35;94965.78;5071827;28;20462;-64
2022/05/03 08:05:10;;;;;;;24.63;4.37;;;;;;;18.40;40.55;94965.91;5071149;28;20477;-67
2022/05/03 08:07:38;;;;;;;5.30;3.10;;;;;;;18.70;39.86;94965.19;5071326;28;20450;-58
2022/05/03 08:10:05;;;;;;;9.80;3.70;;;;;;;17.90;39.98;94965.22;5070200;28;20486;-61
2022/05/03 08:12:32;;;;;;;3.90;3.00;;;;;;;17.99;39.74;94966.06;5071390;28;20499;-62
2022/05/03 08:15:00;;;;;;;5.40;3.00;;;;;;;18.05;41.13;94970.94;5070969;28;20437;-58
2022/05/03 08:17:28;;;;;;;5.03;3.30;;;;;;;17.98;40.78;94967.16;5071500;28;20552;-53
2022/05/03 08:19:55;;;;;;;5.63;3.17;;;;;;;18.18;40.22;94982.59;5070407;28;20438;-55
2022/05/03 08:22:22;;;;;;;4.03;2.60;;;;;;;17.71;41.05;94973.31;5070803;28;20442;-56
2022/05/03 08:24:49;;;;;;;4.97;3.10;;;;;;;17.84;41.22;94984.97;5070604;28;20438;-60
2022/05/03 08:27:16;;;;;;;5.20;2.63;;;;;;;17.61;41.08;94983.34;5071223;28;20453;-61
2022/05/03 08:29:43;;;;;;;5.03;3.17;;;;;;;17.73;40.60;94973.00;5070632;28;20497;-63
2022/05/03 08:32:10;;;;;;;4.20;3.03;;;;;;;17.73;40.62;94983.59;5071310;28;20867;-64
2022/05/03 08:34:37;;;;;;;3.83;3.03;;;;;;;18.44;39.78;94991.56;5070974;28;20469;-58
2022/05/03 08:42:36;;;;;;;4.07;3.40;;;;;;;18.36;40.63;94989.59;5070966;28;20433;-65
2022/05/03 08:45:03;;;;;;;5.73;3.23;;;;;;;18.65;40.22;94962.69;5070443;28;20438;-60
2022/05/03 08:47:31;;;;;;;3.97;2.70;;;;;;;18.49;39.16;94991.44;5070566;28;20988;-59
2022/05/03 08:50:08;;;;;;;3.60;3.10;;;;;;;18.79;39.37;94990.72;5069795;28;20477;-62
2022/05/03 08:52:44;;;;;;;4.20;3.10;;;;;;;18.97;39.29;94991.56;5070608;28;20446;-61
2022/05/03 08:55:12;;;;;;;3.47;2.40;;;;;;;18.67;37.69;94968.44;5070056;28;20525;-56
2022/05/03 08:57:41;;;;;;;5.27;2.63;;;;;;;18.72;38.08;94985.03;5070504;28;20499;-57
2022/05/03 09:00:09;;;;;;;7.50;4.70;;;;;;;18.74;38.45;94984.75;5069492;28;20523;-63
2022/05/03 09:02:44;;;;;;;4.13;3.30;;;;;;;18.13;39.63;94990.69;5070733;28;20446;-62
2022/05/03 09:05:13;;;;;;;3.23;2.83;;;;;;;18.97;38.53;94989.72;5069839;28;20980;-60
2022/05/03 09:07:56;;;;;;;5.53;3.40;;;;;;;19.11;38.33;94992.25;5070146;28;20442;-61
2022/05/03 09:10:26;;;;;;;4.10;3.03;;;;;;;19.29;37.58;94985.16;5070034;28;20536;-59
2022/05/03 09:12:55;;;;;;;4.37;2.43;;;;;;;18.99;37.45;94981.44;5070247;28;20437;-59
2022/05/03 09:15:33;;;;;;;4.10;2.50;;;;;;;19.36;37.62;94985.53;5069756;28;20452;-65
2022/05/03 09:18:00;;;;;;;4.07;2.33;;;;;;;19.18;37.16;94985.44;5070217;28;20999;-59
2022/05/03 09:26:14;;;;;;;4.07;2.70;;;;;;;19.46;36.50;94986.03;5069192;28;20474;-64
2022/05/03 09:28:50;;;;;;;6.53;2.80;;;;;;;19.52;37.04;94986.66;5069655;28;20482;-56
2022/05/03 09:31:50;;;;;;;6.17;2.80;;;;;;;19.49;37.13;94981.97;5069427;28;20831;-55
2022/05/03 09:34:19;;;;;;;3.87;2.50;;;;;;;19.45;36.31;94983.69;5054732;28;20932;-58
2022/05/03 09:37:04;;;;;;;4.40;2.50;;;;;;;18.64;36.61;94924.72;5069376;28;20449;-60
2022/05/03 09:39:42;;;;;;;6.23;3.30;;;;;;;19.14;36.39;94971.19;5070119;28;20462;-59
2022/05/03 09:42:13;;;;;;;7.33;2.90;;;;;;;19.30;37.00;94976.09;5069779;28;20441;-61
2022/05/03 09:45:02;;;;;;;4.53;2.50;;;;;;;18.90;36.25;94984.03;5069444;28;20975;-63
2022/05/03 09:47:52;;;;;;;7.33;2.70;;;;;;;19.48;36.59;94970.56;5069980;28;20445;-63
2022/05/03 09:50:29;;;;;;;5.13;2.20;;;;;;;19.55;35.66;94967.44;5051109;28;20511;-65
2022/05/03 09:52:57;;;;;;;5.73;3.13;;;;;;;19.97;35.63;94964.06;5069083;28;20448;-59
2022/05/03 09:55:32;;;;;;;4.80;3.03;;;;;;;20.24;36.11;94969.09;5068982;28;20478;-61
2022/05/03 09:58:02;;;;;;;3.30;2.20;;;;;;;19.94;35.14;94970.03;5069435;28;20444;-59
2022/05/03 10:00:31;;;;;;;4.27;3.83;;;;;;;20.36;34.25;94965.81;5068522;28;20489;-58
2022/05/03 10:02:59;;;;;;;6.33;2.90;;;;;;;20.39;34.83;94952.66;5069040;28;21206;-55
2022/05/03 10:05:26;;;;;;;4.90;2.50;;;;;;;20.36;34.86;94966.63;5069308;28;21020;-64
2022/05/03 10:07:54;;;;;;;5.43;2.23;;;;;;;20.27;34.69;94963.19;5069661;28;20457;-55
2022/05/03 10:10:24;;;;;;;3.33;2.30;;;;;;;20.58;34.51;94941.69;5069020;28;20490;-61
2022/05/03 10:12:52;;;;;;;4.43;2.53;;;;;;;20.31;34.67;94958.75;5069201;28;20461;-66
2022/05/03 10:21:12;;;;;;;3.37;2.47;;;;;;;20.01;33.63;94949.06;5068668;28;20444;-60
2022/05/03 10:23:39;;;;;;;5.53;2.23;;;;;;;19.40;34.50;94965.19;5069026;28;20979;-52
2022/05/03 10:26:09;;;;;;;5.50;1.87;;;;;;;19.42;34.14;94965.69;5068970;28;20599;-59
2022/05/03 10:29:03;;;;;;;9.23;3.10;;;;;;;19.83;34.61;94952.81;5051398;28;20445;-66
2022/05/03 10:31:31;;;;;;;4.47;1.90;;;;;;;19.30;34.30;94954.84;5068691;28;20442;-56
2022/05/03 10:34:02;;;;;;;4.83;2.00;;;;;;;19.46;34.65;94948.03;5072391;28;20951;-63
2022/05/03 10:36:30;;;;;;;7.93;1.83;;;;;;;19.47;33.58;94954.94;5072751;28;20556;-65
2022/05/03 10:39:05;;;;;;;3.93;1.73;;;;;;;19.15;33.63;94950.72;5073394;28;21279;-60
2022/05/03 10:41:51;;;;;;;4.57;1.70;;;;;;;19.47;34.47;94949.59;5072597;28;20528;-57
2022/05/03 10:44:44;;;;;;;3.27;1.90;;;;;;;19.82;33.93;94940.59;5073118;28;20954;-61
2022/05/03 10:47:19;;;;;;;3.33;2.20;;;;;;;20.08;34.21;94938.72;5072977;28;20822;-64
2022/05/03 10:50:12;;;;;;;2.57;2.37;;;;;;;20.26;33.74;94945.63;5071977;28;20480;-63
2022/05/03 10:53:05;;;;;;;2.10;1.90;;;;;;;20.07;32.05;94942.50;5064219;28;20446;-57
2022/05/03 10:55:38;;;;;;;4.13;3.00;;;;;;;20.73;32.42;94947.28;5060096;28;20544;-61
2022/05/03 10:58:27;;;;;;;3.53;2.60;;;;;;;19.83;32.38;94948.28;5072623;28;20446;-59
2022/05/03 11:01:18;;;;;;;2.63;2.40;;;;;;;19.74;32.44;94955.44;5072323;28;20470;-52
2022/05/03 11:03:48;;;;;;;4.10;2.20;;;;;;;20.41;32.53;94936.38;5072749;28;20898;-60
2022/05/03 11:06:27;;;;;;;4.07;2.27;;;;;;;20.01;32.66;94949.84;5072718;28;20425;-59
2022/05/03 11:11:53;;;;;;;6.20;5.13;;;;;;;20.64;32.83;94935.88;5072044;28;20544;-54
2022/05/03 11:14:24;;;;;;;4.17;2.60;;;;;;;20.65;32.19;94934.78;5062727;28;20446;-62
2022/05/03 11:17:08;;;;;;;5.80;2.67;;;;;;;20.61;31.25;94933.06;5071734;28;20805;-62
2022/05/03 11:19:49;;;;;;;3.63;2.60;;;;;;;21.20;31.33;94926.00;5072500;28;20442;-57
2022/05/03 11:22:20;;;;;;;2.87;2.63;;;;;;;21.88;30.59;94920.25;5072132;28;20444;-56
2022/05/03 11:24:49;;;;;;;4.90;2.10;;;;;;;22.51;30.25;94916.44;5071709;28;20453;-63
2022/05/03 11:27:17;;;;;;;4.13;2.00;;;;;;;22.22;30.12;94920.00;5071576;28;20453;-62
2022/05/03 11:29:48;;;;;;;4.20;2.10;;;;;;;22.60;30.60;94914.50;5071792;28;20531;-64
2022/05/03 11:32:26;;;;;;;2.20;1.90;;;;;;;22.89;29.80;94912.44;5072173;28;20446;-61
2022/05/03 11:35:20;;;;;;;3.40;1.90;;;;;;;22.32;29.85;94916.91;5071831;28;20426;-59
2022/05/03 11:37:57;;;;;;;2.13;1.80;;;;;;;22.65;30.11;94909.72;5072119;28;20438;-62
2022/05/03 11:40:26;;;;;;;4.17;2.37;;;;;;;22.71;30.32;94924.44;5071554;28;20449;-56
2022/05/03 11:42:53;;;;;;;3.30;3.00;;;;;;;22.35;29.28;94918.16;5072384;28;20515;-64
2022/05/03 11:45:20;;;;;;;4.13;3.30;;;;;;;22.19;29.87;94917.22;5052439;28;20977;-58
2022/05/03 11:47:49;;;;;;;3.20;2.77;;;;;;;22.24;29.95;94919.69;5071371;28;20426;-62
2022/05/03 11:56:09;;;;;;;5.37;2.07;;;;;;;20.89;31.43;94916.34;5071362;28;20450;-63
2022/05/03 11:58:37;;;;;;;5.97;3.87;;;;;;;20.59;31.27;94916.63;5071221;28;20452;-62
2022/05/03 12:01:15;;;;;;;5.53;2.90;;;;;;;20.44;32.07;94912.56;5070851;28;20446;-61
2022/05/03 12:03:46;;;;;;;5.97;2.23;;;;;;;20.80;31.80;94912.94;5071451;28;21101;-61
2022/05/03 12:06:13;;;;;;;5.13;3.00;;;;;;;20.26;31.97;94908.38;5071090;28;20442;-63
2022/05/03 12:08:41;;;;;;;8.03;3.47;;;;;;;20.46;31.94;94899.72;5071428;28;20537;-65
2022/05/03 12:11:20;;;;;;;5.07;2.63;;;;;;;20.54;32.41;94903.47;5070823;28;20477;-67
2022/05/03 12:13:47;;;;;;;5.10;2.23;;;;;;;20.68;32.14;94904.84;5071520;28;20503;-54
2022/05/03 12:16:17;;;;;;;4.93;2.13;;;;;;;20.45;32.21;94911.50;5070935;28;20422;-58
2022/05/03 12:18:48;;;;;;;3.50;2.20;;;;;;;20.49;31.81;94912.41;5071392;28;20483;-58
2022/05/03 12:21:21;;;;;;;3.53;2.57;;;;;;;20.04;31.39;94916.50;5070967;28;20442;-61
2022/05/03 12:23:51;;;;;;;7.87;5.30;;;;;;;19.77;31.98;94916.81;5072400;28;20468;-62
2022/05/03 12:26:27;;;;;;;6.43;2.90;;;;;;;20.11;32.29;94916.81;5071173;28;20438;-60
2022/05/03 12:28:59;;;;;;;4.00;2.70;;;;;;;20.02;32.71;94914.16;5070571;28;20936;-60
2022/05/03 12:31:45;;;;;;;5.23;3.40;;;;;;;20.08;32.50;94922.75;5070181;28;20442;-61
2022/05/03 12:34:22;;;;;;;3.63;2.00;;;;;;;20.02;32.75;94934.66;5071019;28;21019;-55
2022/05/03 12:36:49;;;;;;;5.10;1.80;;;;;;;19.70;32.97;94937.75;5070589;28;20824;-65